Time;durP1;ratioP1;P1;durP2;ratioP2;P2;SDS_P1;SDS_P2;PMS_P1;PMS_P2;Temp;Humidity;BMP_temperature;BMP_pressure;BME280_temperature;BME280_humidity;BME280_pressure;Samples;Min_cycle;Max_cycle;Signal;HPM_P1;HPM_P2
2021/08/29 00:00:34;;;;;;;4.83;4.43;;;15.90;99.90;;;;;;10450598;28;20699;-84
2021/08/29 00:05:37;;;;;;;4.30;4.00;;;15.90;99.90;;;;;;10444601;28;20229;-83
2021/08/29 00:10:40;;;;;;;4.17;3.87;;;15.90;99.90;;;;;;10455882;28;20193;-83
2021/08/29 00:15:42;;;;;;;4.40;4.00;;;15.90;99.90;;;;;;10419414;28;20214;-83
2021/08/29 00:20:46;;;;;;;4.73;4.33;;;15.90;99.90;;;;;;10436027;28;20216;-83
2021/08/29 00:25:48;;;;;;;4.13;3.83;;;16.00;99.90;;;;;;10437597;28;20216;-84
2021/08/29 00:30:51;;;;;;;4.30;4.10;;;16.00;99.90;;;;;;10453086;28;20212;-83
2021/08/29 00:35:54;;;;;;;4.83;4.43;;;16.00;99.90;;;;;;10419962;28;20677;-84
2021/08/29 00:40:56;;;;;;;4.53;3.90;;;16.00;99.90;;;;;;10436342;28;20257;-83
2021/08/29 00:45:58;;;;;;;4.43;4.10;;;16.10;99.90;;;;;;10434828;28;20231;-83
2021/08/29 00:51:02;;;;;;;4.20;3.83;;;16.10;99.90;;;;;;10419946;28;20193;-83
2021/08/29 00:56:05;;;;;;;4.03;3.70;;;16.10;99.90;;;;;;10436375;28;20783;-84
2021/08/29 01:01:09;;;;;;;5.10;4.23;;;16.10;99.90;;;;;;10414338;28;20260;-84
2021/08/29 01:06:24;;;;;;;4.57;4.27;;;16.10;99.90;;;;;;10417427;28;20225;-83
2021/08/29 01:11:50;;;;;;;4.57;4.27;;;16.10;99.90;;;;;;10453288;28;20267;-83
2021/08/29 01:17:03;;;;;;;4.57;4.27;;;16.20;99.90;;;;;;10418543;28;20485;-84
2021/08/29 01:22:10;;;;;;;5.07;4.67;;;16.20;99.90;;;;;;10437827;28;20279;-84
2021/08/29 01:27:18;;;;;;;5.50;5.10;;;16.30;99.90;;;;;;10435470;28;20248;-83
2021/08/29 01:32:23;;;;;;;5.03;4.63;;;16.30;99.90;;;;;;10435948;28;20203;-83
2021/08/29 01:37:29;;;;;;;4.63;4.33;;;16.30;99.90;;;;;;10436286;28;20270;-83
2021/08/29 01:42:32;;;;;;;5.30;4.90;;;16.30;99.90;;;;;;10434960;28;20217;-83
2021/08/29 01:47:40;;;;;;;4.50;4.20;;;16.40;99.90;;;;;;10440958;28;20695;-83
2021/08/29 01:52:42;;;;;;;5.13;4.73;;;16.30;99.90;;;;;;10424989;28;20193;-83
2021/08/29 01:58:02;;;;;;;5.23;4.80;;;16.40;99.90;;;;;;10442769;28;20220;-83
2021/08/29 02:03:12;;;;;;;5.43;5.03;;;16.40;99.90;;;;;;10424658;28;20646;-83
2021/08/29 02:08:16;;;;;;;6.10;5.20;;;16.30;99.90;;;;;;10441055;28;20217;-83
2021/08/29 02:13:23;;;;;;;4.97;4.60;;;16.30;99.90;;;;;;10424923;28;20655;-83
2021/08/29 02:18:30;;;;;;;6.60;6.00;;;16.30;99.90;;;;;;10441152;28;20750;-83
2021/08/29 02:23:33;;;;;;;5.27;4.77;;;16.30;99.90;;;;;;10440072;28;20229;-83
2021/08/29 02:28:35;;;;;;;5.10;4.70;;;16.30;99.90;;;;;;10459670;28;20579;-83
2021/08/29 02:33:39;;;;;;;5.30;4.90;;;16.30;99.90;;;;;;10425894;28;20240;-83
2021/08/29 02:38:43;;;;;;;5.03;4.63;;;16.30;99.90;;;;;;10441609;28;20217;-83
2021/08/29 02:43:46;;;;;;;4.90;4.60;;;16.30;99.90;;;;;;10441125;28;20209;-83
2021/08/29 02:48:50;;;;;;;9.60;4.93;;;16.30;99.90;;;;;;10423730;28;20688;-84
2021/08/29 02:53:54;;;;;;;5.80;5.30;;;16.20;99.90;;;;;;10423021;28;20700;-83
2021/08/29 02:58:57;;;;;;;5.77;5.27;;;16.10;99.90;;;;;;10421208;28;20272;-82
2021/08/29 03:04:08;;;;;;;5.90;5.50;;;16.00;99.90;;;;;;10436033;28;20686;-83
2021/08/29 03:09:13;;;;;;;5.43;5.03;;;16.00;99.90;;;;;;10393174;28;20321;-83
2021/08/29 03:14:20;;;;;;;5.10;4.73;;;15.90;99.90;;;;;;10434660;28;20719;-83
2021/08/29 03:19:24;;;;;;;5.70;5.30;;;15.80;99.90;;;;;;10438822;28;20299;-82
2021/08/29 03:24:48;;;;;;;6.30;5.80;;;15.80;99.90;;;;;;10439762;28;20189;-84
2021/08/29 03:29:51;;;;;;;5.80;5.30;;;15.70;99.90;;;;;;10438968;28;20209;-83
2021/08/29 03:35:01;;;;;;;6.40;5.90;;;15.70;99.90;;;;;;10438358;28;20196;-83
2021/08/29 03:40:07;;;;;;;6.40;5.87;;;15.60;99.90;;;;;;10440427;28;20259;-82
2021/08/29 03:45:12;;;;;;;7.07;6.47;;;15.60;99.90;;;;;;10424119;28;20232;-82
2021/08/29 03:50:16;;;;;;;7.23;6.73;;;15.60;99.90;;;;;;10423306;28;20200;-83
2021/08/29 03:55:22;;;;;;;6.50;6.00;;;15.60;99.90;;;;;;10439055;28;20216;-83
2021/08/29 04:00:28;;;;;;;6.97;6.47;;;15.60;99.90;;;;;;10437668;28;20267;-83
2021/08/29 04:05:43;;;;;;;5.87;5.47;;;15.60;99.90;;;;;;10437533;28;20306;-83
2021/08/29 04:10:48;;;;;;;6.93;6.30;;;15.50;99.90;;;;;;10437702;28;20561;-82
2021/08/29 04:15:51;;;;;;;7.07;6.57;;;15.50;99.90;;;;;;10438285;28;20213;-82
2021/08/29 04:20:55;;;;;;;6.20;5.60;;;15.50;99.90;;;;;;10437415;28;20242;-82
2021/08/29 04:25:58;;;;;;;6.47;5.90;;;15.50;99.90;;;;;;10420388;28;20266;-83
2021/08/29 04:31:02;;;;;;;6.90;6.37;;;15.50;99.90;;;;;;10436889;28;20280;-83
2021/08/29 04:36:11;;;;;;;8.53;6.97;;;15.50;99.90;;;;;;10436603;28;20221;-83
2021/08/29 04:41:14;;;;;;;6.93;6.43;;;15.50;99.90;;;;;;10436287;28;20228;-83
2021/08/29 04:46:16;;;;;;;6.97;6.37;;;15.50;99.90;;;;;;10435759;28;20221;-83
2021/08/29 04:51:21;;;;;;;6.87;6.17;;;15.60;99.90;;;;;;10436085;28;20195;-82
2021/08/29 04:56:23;;;;;;;7.10;6.60;;;15.60;99.90;;;;;;10435261;28;20219;-82
2021/08/29 05:01:30;;;;;;;6.67;6.17;;;15.50;99.90;;;;;;10452719;28;20205;-83
2021/08/29 05:06:34;;;;;;;6.10;5.60;;;15.40;99.90;;;;;;10435727;28;20221;-83
2021/08/29 05:11:37;;;;;;;6.13;5.70;;;15.40;99.90;;;;;;10436234;28;20259;-83
2021/08/29 05:16:39;;;;;;;8.13;7.10;;;15.40;99.90;;;;;;10434948;28;20221;-82
2021/08/29 05:21:43;;;;;;;7.60;7.10;;;15.40;99.90;;;;;;10425355;28;20311;-82
2021/08/29 05:27:01;;;;;;;8.00;7.40;;;15.40;99.90;;;;;;10427692;28;20662;-82
2021/08/29 05:32:04;;;;;;;8.33;7.43;;;15.30;99.90;;;;;;10443645;28;20657;-82
2021/08/29 05:37:15;;;;;;;7.43;6.73;;;15.20;99.90;;;;;;10441191;28;20596;-82
2021/08/29 05:42:37;;;;;;;7.47;5.87;;;15.20;99.90;;;;;;10457010;28;20237;-83
2021/08/29 05:47:45;;;;;;;6.70;6.20;;;15.30;99.90;;;;;;10428111;28;20233;-83
2021/08/29 05:52:48;;;;;;;6.00;5.60;;;15.30;99.90;;;;;;10427322;28;20197;-82
2021/08/29 05:57:50;;;;;;;8.27;6.30;;;15.30;99.90;;;;;;10426896;28;20307;-82
2021/08/29 06:02:53;;;;;;;5.60;5.20;;;15.30;99.90;;;;;;10442826;28;20239;-82
2021/08/29 06:07:56;;;;;;;6.80;6.20;;;15.30;99.90;;;;;;10430933;28;20247;-82
2021/08/29 06:12:59;;;;;;;6.00;5.40;;;15.30;99.90;;;;;;10431067;28;20312;-83
2021/08/29 06:18:03;;;;;;;5.80;5.40;;;15.20;99.90;;;;;;10447822;28;20243;-82
2021/08/29 06:23:06;;;;;;;5.63;5.13;;;15.30;99.90;;;;;;10431311;28;20221;-82
2021/08/29 06:28:27;;;;;;;6.70;6.10;;;15.20;99.90;;;;;;10450484;28;20217;-82
2021/08/29 06:33:48;;;;;;;5.33;5.00;;;15.30;99.90;;;;;;10467516;28;20185;-82
2021/08/29 06:38:58;;;;;;;4.40;4.10;;;15.30;99.90;;;;;;10408477;28;20296;-82
2021/08/29 06:44:00;;;;;;;4.57;4.37;;;15.30;99.90;;;;;;10390587;28;20229;-83
2021/08/29 06:49:21;;;;;;;3.20;3.00;;;15.20;99.90;;;;;;10446850;28;20232;-82
2021/08/29 06:54:54;;;;;;;3.80;3.60;;;15.20;99.90;;;;;;10449691;28;20194;-82
2021/08/29 07:00:28;;;;;;;4.17;3.87;;;15.20;99.90;;;;;;10428767;28;20606;-82
2021/08/29 07:05:35;;;;;;;3.77;3.47;;;15.20;99.90;;;;;;10421679;28;20276;-82
2021/08/29 07:10:58;;;;;;;3.90;3.70;;;15.30;99.90;;;;;;10422016;28;20216;-82
2021/08/29 07:16:19;;;;;;;4.07;3.77;;;15.30;99.90;;;;;;10438668;28;20209;-83
2021/08/29 07:21:21;;;;;;;3.80;3.50;;;15.40;99.90;;;;;;10435526;28;20220;-82
2021/08/29 07:26:43;;;;;;;2.83;2.73;;;15.40;99.90;;;;;;10463156;28;20221;-83
2021/08/29 07:32:05;;;;;;;5.30;3.00;;;15.40;99.90;;;;;;10460223;28;20217;-82
2021/08/29 07:37:08;;;;;;;3.23;3.10;;;15.50;99.90;;;;;;10424445;28;20250;-83
2021/08/29 07:42:12;;;;;;;2.80;2.70;;;15.50;99.90;;;;;;10387947;28;20218;-83
2021/08/29 07:47:14;;;;;;;2.63;2.53;;;15.50;99.90;;;;;;10424459;28;20408;-83
2021/08/29 07:52:16;;;;;;;2.63;2.53;;;15.40;99.90;;;;;;10430450;28;20668;-83
2021/08/29 07:57:38;;;;;;;2.53;2.40;;;15.50;99.90;;;;;;10452436;28;20328;-83
2021/08/29 08:02:49;;;;;;;2.70;2.37;;;15.50;99.90;;;;;;10417209;28;20242;-82
2021/08/29 08:08:11;;;;;;;2.20;2.10;;;15.40;99.90;;;;;;10433854;28;20247;-83
2021/08/29 08:13:33;;;;;;;2.80;2.60;;;15.50;99.90;;;;;;10450735;28;20193;-83
2021/08/29 08:18:36;;;;;;;2.47;2.37;;;15.50;99.90;;;;;;10430525;28;20225;-83
2021/08/29 08:23:39;;;;;;;3.33;3.10;;;15.50;99.90;;;;;;10416080;28;20227;-83
2021/08/29 08:29:04;;;;;;;2.70;2.60;;;15.50;99.90;;;;;;10432004;28;20224;-83
2021/08/29 08:34:25;;;;;;;2.60;2.40;;;15.60;99.90;;;;;;10437173;28;20645;-83
2021/08/29 08:39:39;;;;;;;2.47;2.27;;;15.60;99.90;;;;;;10437437;28;20213;-83
2021/08/29 08:44:52;;;;;;;2.87;2.77;;;15.70;99.90;;;;;;10436142;28;20212;-83
2021/08/29 08:50:15;;;;;;;3.30;3.10;;;15.80;99.90;;;;;;10436707;28;20203;-83
2021/08/29 08:55:38;;;;;;;3.33;3.13;;;15.80;99.90;;;;;;10451222;28;20806;-83
2021/08/29 09:01:01;;;;;;;3.90;3.60;;;15.80;99.90;;;;;;10448889;28;20192;-83
2021/08/29 09:06:26;;;;;;;5.27;4.90;;;15.90;99.90;;;;;;10409986;28;20229;-83
2021/08/29 09:11:28;;;;;;;5.23;4.93;;;15.90;99.90;;;;;;10421473;28;20189;-83
2021/08/29 09:16:32;;;;;;;5.00;4.70;;;15.90;99.90;;;;;;10430067;28;20304;-83
2021/08/29 09:21:36;;;;;;;3.40;3.20;;;16.00;99.90;;;;;;10396708;28;20747;-83
2021/08/29 09:26:46;;;;;;;3.90;3.70;;;16.10;99.90;;;;;;10381614;28;20249;-83
2021/08/29 09:32:13;;;;;;;3.80;3.50;;;16.10;99.90;;;;;;10405390;28;20206;-83
2021/08/29 09:37:28;;;;;;;3.67;3.43;;;16.20;99.90;;;;;;10381629;28;20222;-82
2021/08/29 09:42:56;;;;;;;3.37;3.23;;;16.10;99.90;;;;;;10395985;28;20208;-83
2021/08/29 09:48:06;;;;;;;2.80;2.70;;;16.20;99.90;;;;;;10422967;28;20221;-83
2021/08/29 09:53:24;;;;;;;2.83;2.73;;;16.20;99.90;;;;;;10437646;28;20193;-84
2021/08/29 09:58:56;;;;;;;2.80;2.70;;;16.20;99.90;;;;;;10423333;28;20271;-83
2021/08/29 10:04:19;;;;;;;4.13;3.63;;;16.20;99.90;;;;;;10418865;28;20225;-83
2021/08/29 10:09:26;;;;;;;3.27;3.07;;;16.20;99.90;;;;;;10428465;28;20236;-84
2021/08/29 10:14:43;;;;;;;4.50;3.20;;;16.20;99.90;;;;;;10445707;28;20723;-84
2021/08/29 10:20:07;;;;;;;6.40;4.10;;;16.20;99.90;;;;;;10420785;28;20245;-84
2021/08/29 10:25:42;;;;;;;4.63;3.57;;;16.20;99.90;;;;;;10386695;28;20232;-83
2021/08/29 10:31:13;;;;;;;5.37;5.00;;;16.20;99.90;;;;;;10400356;28;20629;-84
2021/08/29 10:36:29;;;;;;;7.43;7.00;;;16.30;99.90;;;;;;10401418;28;20284;-84
2021/08/29 10:41:42;;;;;;;8.13;7.63;;;16.20;99.90;;;;;;10399779;28;20606;-83
2021/08/29 10:46:50;;;;;;;10.70;10.00;;;16.20;99.90;;;;;;10416588;28;20221;-84
2021/08/29 10:52:13;;;;;;;10.30;9.50;;;16.20;99.90;;;;;;10427718;28;20197;-84
2021/08/29 10:57:31;;;;;;;11.27;10.37;;;16.30;99.90;;;;;;10414641;28;20236;-83
2021/08/29 11:02:39;;;;;;;10.60;9.90;;;16.40;99.90;;;;;;10388037;28;20213;-83
2021/08/29 11:08:20;;;;;;;11.03;10.13;;;16.60;99.90;;;;;;10435904;28;20224;-84
2021/08/29 11:13:42;;;;;;;9.20;8.53;;;16.70;99.90;;;;;;10452708;28;20639;-83
2021/08/29 11:19:13;;;;;;;9.13;8.37;;;16.90;99.90;;;;;;10408332;28;20220;-84
2021/08/29 11:24:53;;;;;;;7.53;7.03;;;17.00;99.90;;;;;;10437097;28;20604;-83
2021/08/29 11:29:57;;;;;;;8.80;8.20;;;17.10;99.90;;;;;;10436599;28;20272;-84
2021/08/29 11:35:08;;;;;;;7.13;6.73;;;17.30;99.90;;;;;;10417453;28;20209;-84
2021/08/29 11:40:16;;;;;;;7.50;7.10;;;17.60;99.90;;;;;;10416140;28;20193;-84
2021/08/29 11:45:23;;;;;;;6.87;6.40;;;17.80;99.90;;;;;;10431329;28;20221;-83
2021/08/29 11:50:32;;;;;;;6.77;6.37;;;18.00;99.90;;;;;;10418782;28;20194;-84
2021/08/29 11:55:58;;;;;;;6.50;6.10;;;18.20;99.90;;;;;;10412017;28;20235;-84
2021/08/29 12:01:04;;;;;;;6.80;6.40;;;18.30;99.90;;;;;;10421432;28;20197;-84
2021/08/29 12:06:17;;;;;;;5.53;5.17;;;18.30;99.90;;;;;;10422354;28;20240;-84
2021/08/29 12:11:41;;;;;;;4.87;4.57;;;18.20;99.90;;;;;;10438286;28;20205;-83
2021/08/29 12:17:22;;;;;;;4.70;4.40;;;18.10;99.90;;;;;;10334024;28;20261;-84
2021/08/29 12:22:25;;;;;;;5.40;5.00;;;17.90;99.90;;;;;;10415523;28;20214;-83
2021/08/29 12:27:35;;;;;;;4.67;4.37;;;17.80;99.90;;;;;;10392382;28;20213;-84
2021/08/29 12:32:39;;;;;;;5.20;4.90;;;17.80;99.90;;;;;;10407995;28;20208;-84
2021/08/29 12:37:45;;;;;;;5.83;5.43;;;17.70;99.90;;;;;;10394557;28;20654;-83
2021/08/29 12:42:49;;;;;;;5.10;4.70;;;17.70;99.90;;;;;;10402603;28;20602;-83
2021/08/29 12:48:09;;;;;;;5.17;4.83;;;17.80;99.90;;;;;;10400068;28;20589;-83
2021/08/29 12:53:14;;;;;;;5.27;4.97;;;17.80;99.90;;;;;;10382052;28;20209;-83
2021/08/29 12:58:21;;;;;;;4.87;4.57;;;17.80;99.90;;;;;;10373752;28;20638;-83
2021/08/29 13:03:24;;;;;;;4.47;4.17;;;17.90;99.90;;;;;;10398371;28;20596;-83
2021/08/29 13:08:40;;;;;;;4.30;4.00;;;17.90;99.90;;;;;;10426829;28;20225;-83
2021/08/29 13:13:47;;;;;;;4.20;4.00;;;17.80;99.90;;;;;;10446667;28;20790;-82
2021/08/29 13:19:00;;;;;;;4.90;4.60;;;17.80;99.90;;;;;;10414991;28;20709;-82
2021/08/29 13:24:23;;;;;;;4.73;4.40;;;17.70;99.90;;;;;;10420944;28;20218;-82
2021/08/29 13:29:37;;;;;;;5.30;5.00;;;17.70;99.90;;;;;;10405994;28;20301;-82
2021/08/29 13:34:40;;;;;;;6.53;6.03;;;17.60;99.90;;;;;;10450052;28;20195;-82
2021/08/29 13:39:44;;;;;;;6.23;5.83;;;17.40;99.90;;;;;;10470563;28;20193;-83
2021/08/29 13:44:50;;;;;;;6.83;6.23;;;17.30;99.90;;;;;;10429083;28;20279;-83
2021/08/29 13:49:53;;;;;;;6.63;6.13;;;17.20;99.90;;;;;;10445903;28;20204;-82
2021/08/29 13:54:55;;;;;;;5.90;5.50;;;17.10;99.90;;;;;;10416333;28;20538;-83
2021/08/29 13:59:58;;;;;;;6.27;5.80;;;17.20;99.90;;;;;;10425453;28;20198;-82
2021/08/29 14:05:00;;;;;;;4.90;4.60;;;17.20;99.90;;;;;;10412707;28;20220;-83
2021/08/29 14:10:06;;;;;;;5.83;5.33;;;17.30;99.90;;;;;;10404936;28;20539;-82
2021/08/29 14:15:11;;;;;;;5.60;5.20;;;17.30;99.90;;;;;;10429763;28;20213;-83
2021/08/29 14:20:14;;;;;;;6.30;5.90;;;17.40;99.90;;;;;;10419527;28;20546;-83
2021/08/29 14:25:16;;;;;;;4.63;4.33;;;17.40;99.90;;;;;;10428659;28;20316;-83
2021/08/29 14:30:22;;;;;;;5.10;4.80;;;17.50;99.90;;;;;;10434835;28;20197;-83
2021/08/29 14:35:25;;;;;;;4.83;4.53;;;17.50;99.90;;;;;;10407794;28;20245;-84
2021/08/29 14:40:28;;;;;;;4.80;4.40;;;17.40;99.90;;;;;;10390367;28;20654;-83
2021/08/29 14:45:31;;;;;;;6.27;5.77;;;17.40;99.90;;;;;;10415765;28;20280;-82
2021/08/29 14:50:34;;;;;;;5.20;4.80;;;17.40;99.90;;;;;;10415172;28;20596;-83
2021/08/29 14:55:45;;;;;;;4.77;4.33;;;17.40;99.90;;;;;;10393076;28;20593;-83
2021/08/29 15:00:49;;;;;;;5.30;4.90;;;17.40;99.90;;;;;;10435119;28;20204;-83
2021/08/29 15:05:51;;;;;;;6.10;5.70;;;17.40;99.90;;;;;;10471954;28;20224;-84
2021/08/29 15:10:56;;;;;;;4.67;4.37;;;17.30;99.90;;;;;;10408159;28;20244;-84
2021/08/29 15:16:00;;;;;;;4.77;4.37;;;17.30;99.90;;;;;;10432148;28;20209;-85
2021/08/29 15:21:04;;;;;;;4.90;4.60;;;17.30;99.90;;;;;;10433617;28;20205;-83
2021/08/29 15:26:06;;;;;;;4.90;4.60;;;17.20;99.90;;;;;;10428800;28;20310;-83
2021/08/29 15:31:10;;;;;;;4.40;4.00;;;17.20;99.90;;;;;;10433440;28;20205;-83
2021/08/29 15:36:12;;;;;;;4.50;4.17;;;17.20;99.90;;;;;;10432152;28;20258;-82
2021/08/29 15:41:18;;;;;;;4.37;4.03;;;17.20;99.90;;;;;;10434852;28;20673;-83
2021/08/29 15:46:21;;;;;;;4.83;4.43;;;17.10;99.90;;;;;;10433825;28;20703;-83
2021/08/29 15:51:23;;;;;;;4.93;4.53;;;17.10;99.90;;;;;;10438683;28;20685;-83
2021/08/29 15:56:26;;;;;;;6.53;6.13;;;17.00;99.90;;;;;;10421582;28;20301;-83
2021/08/29 16:01:29;;;;;;;7.13;6.53;;;17.00;99.90;;;;;;10418767;28;20677;-83
2021/08/29 16:06:31;;;;;;;7.93;7.30;;;16.90;99.90;;;;;;10406446;28;20222;-82
2021/08/29 16:11:35;;;;;;;8.43;7.73;;;16.90;99.90;;;;;;10446387;28;20280;-83
2021/08/29 16:16:38;;;;;;;9.00;8.30;;;16.80;99.90;;;;;;10442060;28;20685;-83
2021/08/29 16:21:40;;;;;;;9.30;8.60;;;16.70;99.90;;;;;;10422665;28;20208;-83
2021/08/29 16:26:43;;;;;;;9.33;8.53;;;16.70;99.90;;;;;;10416958;28;20217;-84
2021/08/29 16:31:46;;;;;;;10.07;9.27;;;16.70;99.90;;;;;;10402558;28;20221;-84
2021/08/29 16:36:48;;;;;;;12.27;9.73;;;16.70;99.90;;;;;;10420600;28;20209;-83
2021/08/29 16:41:51;;;;;;;10.40;9.60;;;16.70;99.90;;;;;;10411128;28;20186;-83
2021/08/29 16:46:54;;;;;;;9.83;9.07;;;16.70;99.90;;;;;;10420701;28;20285;-84
2021/08/29 16:51:57;;;;;;;8.90;8.20;;;16.70;99.90;;;;;;10389012;28;20225;-83
2021/08/29 16:57:01;;;;;;;10.57;9.70;;;16.70;99.90;;;;;;10404588;28;20265;-84
2021/08/29 17:02:06;;;;;;;9.30;8.57;;;16.60;99.90;;;;;;10387799;28;20808;-83
2021/08/29 17:07:09;;;;;;;10.00;9.20;;;16.60;99.90;;;;;;10402548;28;20645;-83
2021/08/29 17:12:13;;;;;;;10.90;10.00;;;16.60;99.90;;;;;;10401942;28;20194;-83
2021/08/29 17:17:20;;;;;;;9.57;8.77;;;16.60;99.90;;;;;;10404336;28;20220;-83
2021/08/29 17:22:32;;;;;;;9.87;8.97;;;16.60;99.90;;;;;;10408901;28;20317;-84
2021/08/29 17:27:52;;;;;;;9.10;8.30;;;16.60;99.90;;;;;;10426677;28;20693;-83
2021/08/29 17:33:00;;;;;;;9.40;8.50;;;16.60;99.90;;;;;;10392885;28;20305;-84
2021/08/29 17:38:05;;;;;;;10.53;9.63;;;16.60;99.90;;;;;;10409106;28;20218;-84
2021/08/29 17:43:08;;;;;;;8.33;7.63;;;16.60;99.90;;;;;;10394917;28;20210;-84
2021/08/29 17:48:17;;;;;;;8.87;8.07;;;16.60;99.90;;;;;;10410205;28;20214;-84
2021/08/29 17:53:22;;;;;;;8.93;8.23;;;16.50;99.90;;;;;;10411744;28;20190;-84
2021/08/29 17:58:29;;;;;;;8.40;7.70;;;16.60;99.90;;;;;;10430687;28;20713;-83
2021/08/29 18:03:33;;;;;;;9.13;8.23;;;16.50;99.90;;;;;;10431078;28;20222;-84
2021/08/29 18:08:35;;;;;;;9.10;8.30;;;16.60;99.90;;;;;;10511311;23;20232;-82
2021/08/29 18:13:38;;;;;;;8.30;7.57;;;16.60;99.90;;;;;;10473920;28;20209;-82
2021/08/29 18:18:42;;;;;;;8.20;7.50;;;16.60;99.90;;;;;;10545778;28;20230;-82
2021/08/29 18:23:44;;;;;;;8.23;7.53;;;16.60;99.90;;;;;;10508093;28;20664;-82
2021/08/29 18:28:46;;;;;;;8.80;7.90;;;16.60;99.90;;;;;;10542086;28;20298;-82
2021/08/29 18:33:50;;;;;;;7.57;6.83;;;16.60;99.90;;;;;;10543234;28;20187;-82
2021/08/29 18:38:52;;;;;;;7.93;7.23;;;16.60;99.90;;;;;;10525179;28;20207;-83
2021/08/29 18:43:55;;;;;;;7.67;6.97;;;16.60;99.90;;;;;;10542811;28;20738;-82
2021/08/29 18:48:58;;;;;;;6.67;6.17;;;16.70;99.90;;;;;;10523919;28;20258;-82
2021/08/29 18:54:00;;;;;;;6.80;6.20;;;16.60;99.90;;;;;;10523532;28;20200;-82
2021/08/29 18:59:04;;;;;;;6.67;6.17;;;16.70;99.90;;;;;;10524220;28;20219;-82
2021/08/29 19:04:07;;;;;;;6.53;5.93;;;16.70;99.90;;;;;;10523244;28;20243;-82
2021/08/29 19:09:10;;;;;;;5.30;5.00;;;16.70;99.90;;;;;;10522483;28;20576;-82
2021/08/29 19:14:13;;;;;;;6.10;5.70;;;16.70;99.90;;;;;;10561710;28;20198;-82
2021/08/29 19:19:16;;;;;;;5.90;5.37;;;16.70;99.90;;;;;;10532422;28;20212;-82
2021/08/29 19:24:19;;;;;;;5.37;5.07;;;16.70;99.90;;;;;;10540496;28;20459;-82
2021/08/29 19:29:21;;;;;;;6.07;5.63;;;16.70;99.90;;;;;;10541380;28;20224;-82
2021/08/29 19:34:24;;;;;;;5.83;5.43;;;16.70;99.90;;;;;;10522465;28;20194;-82
2021/08/29 19:39:26;;;;;;;6.40;5.90;;;16.70;99.90;;;;;;10547237;28;20216;-82
2021/08/29 19:44:29;;;;;;;6.40;5.90;;;16.70;99.90;;;;;;10539052;28;20246;-82
2021/08/29 19:49:32;;;;;;;6.50;6.00;;;16.70;99.90;;;;;;10519965;28;20226;-82
2021/08/29 19:54:34;;;;;;;6.47;6.00;;;16.70;99.90;;;;;;10538104;28;20195;-82
2021/08/29 19:59:36;;;;;;;6.90;6.40;;;16.80;99.90;;;;;;10538184;28;20211;-83
2021/08/29 20:04:40;;;;;;;7.20;6.60;;;16.80;99.90;;;;;;10507978;28;20302;-82
2021/08/29 20:09:42;;;;;;;6.60;6.10;;;16.80;99.90;;;;;;10505458;28;20227;-82
2021/08/29 20:14:44;;;;;;;7.07;6.47;;;16.80;99.90;;;;;;10506436;28;20671;-82
2021/08/29 20:19:48;;;;;;;6.60;6.10;;;16.80;99.90;;;;;;10563514;28;20623;-83
2021/08/29 20:24:50;;;;;;;6.70;6.20;;;16.70;99.90;;;;;;10541223;28;20278;-82
2021/08/29 20:29:52;;;;;;;6.13;5.73;;;16.70;99.90;;;;;;10523762;28;20299;-82
2021/08/29 20:34:55;;;;;;;7.83;7.13;;;16.60;99.90;;;;;;10541094;28;20215;-82
2021/08/29 20:39:58;;;;;;;6.93;6.43;;;16.60;99.90;;;;;;10523511;28;20236;-82
2021/08/29 20:45:00;;;;;;;7.13;6.63;;;16.50;99.90;;;;;;10504021;28;20213;-82
2021/08/29 20:50:03;;;;;;;7.30;6.80;;;16.50;99.90;;;;;;10499480;28;20274;-83
2021/08/29 20:55:06;;;;;;;5.93;5.47;;;16.50;99.90;;;;;;10500601;28;20191;-83
2021/08/29 21:00:10;;;;;;;6.50;6.00;;;16.60;99.90;;;;;;10485100;28;20199;-82
2021/08/29 21:05:13;;;;;;;7.40;6.80;;;16.60;99.90;;;;;;10490597;28;20302;-82
2021/08/29 21:10:16;;;;;;;5.20;4.90;;;16.60;99.90;;;;;;10537976;28;20176;-82
2021/08/29 21:15:18;;;;;;;5.53;5.13;;;16.60;99.90;;;;;;10519892;28;20199;-82
2021/08/29 21:20:21;;;;;;;5.07;4.77;;;16.60;99.90;;;;;;10532473;28;20196;-82
2021/08/29 21:25:23;;;;;;;4.60;4.30;;;16.60;99.90;;;;;;10503684;28;20544;-82
2021/08/29 21:30:25;;;;;;;5.07;4.77;;;16.60;99.90;;;;;;10537174;28;20205;-82
2021/08/29 21:35:29;;;;;;;4.13;3.90;;;16.60;99.90;;;;;;10546283;28;20218;-82
2021/08/29 21:40:31;;;;;;;4.80;4.50;;;16.60;99.90;;;;;;10556335;28;20200;-82
2021/08/29 21:45:33;;;;;;;4.37;4.07;;;16.70;99.90;;;;;;10549206;28;20580;-82
2021/08/29 21:50:37;;;;;;;4.13;3.83;;;16.70;99.90;;;;;;10517958;28;20196;-82
2021/08/29 21:55:39;;;;;;;4.30;4.07;;;16.70;99.90;;;;;;10494018;28;20218;-82
2021/08/29 22:00:45;;;;;;;4.00;3.80;;;16.70;99.90;;;;;;10513457;28;20261;-82
2021/08/29 22:05:49;;;;;;;4.47;4.27;;;16.70;99.90;;;;;;10524874;28;20234;-82
2021/08/29 22:10:53;;;;;;;5.50;5.17;;;16.70;99.90;;;;;;10544128;28;20182;-82
2021/08/29 22:15:56;;;;;;;4.70;4.40;;;16.70;99.90;;;;;;10525784;28;20215;-82
2021/08/29 22:20:59;;;;;;;5.50;5.10;;;16.70;99.90;;;;;;10505195;28;20199;-82
2021/08/29 22:26:02;;;;;;;5.73;5.33;;;16.70;99.90;;;;;;10506870;28;20310;-82
2021/08/29 22:31:04;;;;;;;4.73;4.43;;;16.70;99.90;;;;;;10516881;28;20196;-82
2021/08/29 22:36:07;;;;;;;5.33;5.03;;;16.70;99.90;;;;;;10500159;28;20223;-82
2021/08/29 22:41:09;;;;;;;6.03;5.53;;;16.70;99.90;;;;;;10492720;28;20227;-82
2021/08/29 22:46:12;;;;;;;4.93;4.63;;;16.70;99.90;;;;;;10526162;28;20314;-83
2021/08/29 22:51:15;;;;;;;4.63;4.23;;;16.70;99.90;;;;;;10508643;28;20727;-82
2021/08/29 22:56:17;;;;;;;3.80;3.50;;;16.70;99.90;;;;;;10543715;28;20580;-82
2021/08/29 23:01:19;;;;;;;3.53;3.33;;;16.70;99.90;;;;;;10543621;28;20188;-82
2021/08/29 23:06:23;;;;;;;4.43;4.13;;;16.70;99.90;;;;;;10544004;28;20306;-82
2021/08/29 23:11:25;;;;;;;3.53;3.23;;;16.70;99.90;;;;;;10544231;28;20350;-82
2021/08/29 23:16:28;;;;;;;4.40;4.20;;;16.70;99.90;;;;;;10543735;28;20287;-82
2021/08/29 23:21:32;;;;;;;3.90;3.70;;;16.70;99.90;;;;;;10543511;28;20281;-82
2021/08/29 23:26:34;;;;;;;3.80;3.53;;;16.70;99.90;;;;;;10507959;28;20772;-83
2021/08/29 23:31:36;;;;;;;3.20;3.00;;;16.80;99.90;;;;;;10543041;28;20188;-82
2021/08/29 23:36:40;;;;;;;3.87;3.57;;;16.80;99.90;;;;;;10543471;28;20216;-83
2021/08/29 23:41:42;;;;;;;3.73;3.53;;;16.80;99.90;;;;;;10525147;28;20287;-82
2021/08/29 23:46:44;;;;;;;3.63;3.43;;;16.80;99.90;;;;;;10513523;28;20269;-82
2021/08/29 23:51:48;;;;;;;4.70;4.37;;;16.80;99.90;;;;;;10540980;28;20271;-82
2021/08/29 23:56:50;;;;;;;5.03;4.73;;;16.80;99.90;;;;;;10498217;28;20227;-83
